La Descente de la Lesse
Kategorie
dam
Dinant, 30/08/2015, BEL
13 km - Ergebnis
13km 
PlatzNrNameAgeNATLigaMannschaftRealZeitTkmMoy.ScrStadt
1.3025FBIHAIN AMÉLIE26BELARCH58:2058:204:30 13.3715THEUX
2.3440FVAN DEN BERGH MARGAUX20BELCABW1:07:021:07:025:10 11.6450COURCELLES
3.3507FBIHAIN FANNY21BEL1:13:311:13:315:40 10.6177S
4.3506FBAEKEN EMMANUELLE37BEL1:14:361:14:365:45 10.4690C
5.3015FBAIX CORINNE34BELCEPAL1:15:111:15:115:47 10.3893BRUXELLES
6.3517FGENIN KATHLEEN36BEL1:15:311:15:315:49 10.3397S
7.3128FDE MAN CAROLINE36BEL1:16:131:16:135:52 10.23101BOIS-DE-VILLERS
8.3287FLEJEUNE REBECCA39BEL1:16:281:16:285:53 10.20105FOREST
9.3060FCEINOS MANON26BELARCH1:18:481:18:486:04 9.90122HOUYET
10.3002FAERTS SOPHIE23BELARCHARCH1:19:051:19:056:05 9.86124CELLES
11.3194FGAUTHIER ELISABETH33BEL1:19:371:19:376:08 9.80126WEILLEN
12.3180FFLORA ELODIE37FRA1:20:201:20:206:11 9.71135BRUXELLES
13.3310FMALVAUX NAATHALIE32BEL1:20:211:20:216:11 9.71136DINANT
14.3178FFLAMION ASTRID37BELCAP BEAURAING1:20:421:20:426:13 9.67141WIESME
15.3524FROELANDTS SOPHIE27BELCEPAL1:21:351:21:356:17 9.56149UCCLE
16.3390FROELANDT SOFIE27BELGRIMBERGEN JC1:21:571:21:576:19 9.52150S
17.3299FLONEUX CAROLINE38BEL1:22:241:22:246:21 9.47158HAVELANGE
18.3278FLECHIEN ISABELLE26BEL1:22:411:22:416:22 9.44162BRUXELLES
19.3401FSAMAIN VÉRONIQUE35BELARCH1:22:521:22:526:23 9.41167CINEY
20.3355FNINANE ANNE-FRANÇOISE35BEL1:24:541:24:546:32 9.19188WANZE
21.3059FCAZACU TATIANA37BELPOTES Ô MALTÉS1:26:171:26:176:39 9.04209BRASMENIL
22.3273FLAURANT NOÉMIE22BEL1:26:521:26:526:41 8.98212LESSIVE
23.3436FVALLETTE FLORE25BELARCH1:27:391:27:396:45 8.90222ROCHEFORT
24.3351FNEDELJKOVIC IVANA29SCG1:27:411:27:416:45 8.90224LEUVEN
25.3325FMERCKX CÉLINE31BELJCPMF ECAUSSINNES1:27:451:27:456:45 8.89227ECAUSSINNES
26.3037FBOUZIOTIS MARIE25BELMPSTUDIO1:27:491:27:496:46 8.88229DINANT
27.3198FGÉRARD SÉVERINE39BEL1:27:551:27:556:46 8.87231GÉRIN
28.3138FDESSEILLE EMILIE26BEL1:28:041:28:046:47 8.86233MIAVOYE
29.3224FGYSBRECHTS BARBARA27BEL1:28:101:28:106:47 8.85235HEVERLEE
30.3306FMAHIAT STÉPHANIE29BELM-G CLUB1:28:181:28:186:48 8.83236BOUGE
31.3469FVERRECKT EMILIE35BELM-G CLUB1:28:271:28:276:49 8.82241MEHAIGNE
32.3417FSTEVART VICKY34BEL1:29:161:29:166:52 8.74249PURNODE
33.3453FVAN DE WIJDEVEN LISAN24NLDKNAUS.V. FORTUNA '671:29:181:29:186:53 8.74252SINT-OEDENRODE
34.3501FMONTEGNIES MARYLÈNE34BELJCHSHJCHSH1:29:281:29:286:53 8.72255HAM-SUR-HEURE
35.3424FTAZIAUX SOPHIE37BEL1:29:411:29:416:54 8.70257EPRAVE
36.3341FMOREAU AMÉLIE24BEL1:30:131:30:136:57 8.65268VIRTON
37.3360FPADDUBROUSKAYA HANNA29BLR1:30:221:30:226:58 8.63269HEVERLEE
38.3078FCOLLIGNON AMANDINE26BEL1:32:211:32:217:07 8.45283LIBRAMONT
39.3279FLECLERE CAROLINE36BELDREHANCE TEAM1:32:251:32:257:07 8.44285DRÉHANCE
40.3280FLECOMTE CAROLINE29BELZATOPEK NAMUR1:32:531:32:537:09 8.40291NAMUR
41.3392FROMANS FRANCE37BELAXA RUNNING TEAM1:33:301:33:307:12 8.34296CINEY
42.3340FMORAND MARION25BELLES SOEURETTES1:33:331:33:337:12 8.34297ARLON
43.3031FBOREUX FRANÇOISE38BEL1:33:431:33:437:13 8.32298NAMUR
44.3456FVAN HAUTE PAULINE22BELJCAI1:33:511:33:517:14 8.31300BRUXELLES
45.3200FGERIN ELIANE35BEL1:34:231:34:237:16 8.26309DINANT
46.3513FDION VIRGINIE35BEL1:34:251:34:257:16 8.26310WARISOULX
47.3459FVAN MALDEREN VEERLE39BELHARAKA1:34:271:34:277:16 8.26311HEMIKSEM
DNF: abandon; DSQ: disqualifié; Vitesse en km/h
29/11/2020 - 08:46 - 93 Eingaben
ChronoRace - Electronic Timing SPRL
http://www.chronorace.be

Page 1 / 2  
La Descente de la Lesse
Kategorie
dam
Dinant, 30/08/2015, BEL
13 km - Ergebnis
13km 
PlatzNrNameAgeNATLigaMannschaftRealZeitTkmMoy.ScrStadt
48.3458FVANLIERDE CELINE37BEL1:34:431:34:437:18 8.24313BARSY
49.3070FCLAUDE JULIE34BEL1:34:441:34:447:18 8.23315CINEY
50.3412FSOHY ANNE35BEL1:34:461:34:467:18 8.23316FALMIGNOUL
51.3080FCONRAD JENNIFER30BELARCH1:34:471:34:477:18 8.23317CINEY
52.3145FDEWINTER ANNE34BELARCH1:36:321:36:327:26 8.08335SCHALTIN
53.3040FBROSTEAUX MARIE34BEL1:36:341:36:347:26 8.08337TEMPLOUX
54.3260FKOLP VIRGINIE34BELETEETENGHIEN1:36:441:36:447:27 8.06339BRAINE-LE-COMTE
55.3314FMARIQUE CAROLINE32BEL1:36:461:36:467:27 8.06340GENDRON
56.3319FMAUFORT JOELLE31BELARCH1:36:571:36:577:28 8.05342B
57.3141FDEVIGNE LAURA29BELARCH1:36:591:36:597:28 8.04343ACHET
58.3430FTHOLL MARIE-GABRIELLE36BEL1:37:021:37:027:28 8.04345ETALLE
59.3414FSPILLIAERT JESSICA36BEL1:37:361:37:367:31 7.99346DINANT
60.3271FLAURANT ALICE20BEL1:38:441:38:447:36 7.90358LESSIVE
61.3077FCOLLET LAURANE20BELMP STUDIO1:39:531:39:537:41 7.81361DINANT
62.3041FBROSTEAUX SOPHIE34BEL1:39:551:39:557:42 7.81362NAMUR
63.3293FLESOURD DELPHINE27FRA1:41:161:41:167:48 7.703671400
64.3493FVERHAEGHE STEPHANY33BELFURALOPERS1:43:001:43:007:56 7.57382DUISBURG
65.3492FVAN KELST KIRSTEN39BELFURALOPERS1:43:001:43:007:56 7.57383DUISBURG
66.3156FDUBRULLE PASCALE39BEL1:43:111:43:117:57 7.56384BUZENOL
67.3133FDEPREZ INE27BEL1:43:301:43:307:58 7.54390ZERKEGEM
68.3544FDESCAMPE SYBILLE36BELSPTWAVRE1:43:411:43:417:59 7.52391LIMAL
69.3026FBLINDEMAN EMMANUELLE39BEL1:44:321:44:328:03 7.46395SAINT-SEVERIN
70.3504FPÉTRISOT CHARLOTTE21BELJCHSHJCHSH1:44:531:44:538:05 7.44400HAM-SUR-HEURE
71.3117FDE KEUKELEIRE CHARLINE23BEL1:46:471:46:478:13 7.31406THIEULAIN
72.3130FDENIL NATHALIE38BEL1:48:101:48:108:20 7.21411GEMBLOUX
73.3294FLESTRATE SOPHIE38BELSTEF ET SOF1:48:331:48:338:21 7.19413OHEY
74.3357FNOËL CHRISTELLE37BEL1:49:061:49:068:24 7.15416BIOUL
75.3491FVANHALST MIEKE32BELFURALOPERS1:49:121:49:128:24 7.14417TERVUREN
76.3197FGERARD ALEXANDRA33BELCARACOTRAILERS1:50:041:50:048:28 7.09428DURNAL
77.3090FCROMBEZ ELLEN37BELMEELOPERS MEISE1:50:351:50:358:31 7.05432MEISE
78.3135FDE RUELLE ISABELLE29BEL1:51:191:51:198:34 7.01436GENT
79.3008FARNOULD AURORE32BELARCH1:51:221:51:228:34 7.00437CINEY
80.3498FHERMAN CRISTELLE36BELJCHSHJCHSH1:52:031:52:038:38 6.96442HAM-SUR-HEURE
81.3333FMOERDYCK JOKE32BELKRAMME1:52:481:52:488:41 6.92445MOERBEKE-WAAS
82.3526FTILQUIN MAÏTÉ38BEL1:52:561:52:568:42 6.91446MARCHE LES DAMES
83.3108FDE DECKER OCÉANE24FRA1:53:041:53:048:42 6.90447SAINT AMAND LES EAUX
84.3065FCHARLIER JULIE38BELDREHANCE TEAM1:56:051:56:058:56 6.72457DINANT
85.3152FDUBASIN VALÉRIE34BEL1:56:051:56:058:56 6.72458DRÉHANCE
86.3377FPOIRRIER FLORENCE39BELDREHANCE TEAM2:00:222:00:229:16 6.48465DRÉHANCE
87.3166FEVRARD ANNE-PASCALE39BEL2:04:522:04:529:37 6.25468THY-LE-CHÂTEAU
88.3048FBULTOT EMILIE28BELARCH2:13:392:13:3910:17 5.84473CINEY
89.3386FREMY CATHERINE32BEL2:13:402:13:4010:17 5.84474HAMOIS
90.3378FPOIRRIER ISABELLE36BELDREHANCETEAM2:28:422:28:4211:27 5.25479OTTIGNIES
91.3451FVAN DE VELDE MAUD27BEL2:29:042:29:0411:28 5.23480ROCHEFORT
92.3225FHALLEUX NATHALIE37BELARCH2:29:052:29:0511:29 5.23482CINEY
DNF3081FCOPAY ANNE35BELLOYERS
DNF: abandon; DSQ: disqualifié; Vitesse en km/h
29/11/2020 - 08:46 - 93 Eingaben
ChronoRace - Electronic Timing SPRL
http://www.chronorace.be

Page 2 / 2